Time;durP1;ratioP1;P1;durP2;ratioP2;P2;SDS_P1;SDS_P2;PMS_P1;PMS_P2;Temp;Humidity;BMP_temperature;BMP_pressure;BME280_temperature;BME280_humidity;BME280_pressure;Samples;Min_cycle;Max_cycle;Signal;HPM_P1;HPM_P2
2022/12/05 06:05:42;;;;;;;88.53;28.75;;;;;;;4.74;100.00;101874.41;5015435;28;20687;-78
2022/12/05 06:08:07;;;;;;;90.28;31.15;;;;;;;4.74;100.00;101879.94;5017773;28;20029;-75
2022/12/05 06:10:33;;;;;;;84.90;27.15;;;;;;;4.73;100.00;101872.78;5015201;28;20033;-75
2022/12/05 06:12:59;;;;;;;89.10;27.23;;;;;;;4.75;100.00;101878.84;5045339;23;20492;-75
2022/12/05 06:15:28;;;;;;;90.28;29.55;;;;;;;4.80;100.00;101870.38;5010047;28;20522;-75
2022/12/05 06:17:53;;;;;;;77.07;26.30;;;;;;;4.76;100.00;101875.72;5005391;28;20107;-78
2022/12/05 06:20:18;;;;;;;81.75;26.88;;;;;;;4.84;100.00;101868.63;5009605;28;20112;-75
2022/12/05 06:22:43;;;;;;;74.13;27.65;;;;;;;4.90;100.00;101872.91;5013323;28;20275;-75
2022/12/05 06:25:09;;;;;;;85.80;26.75;;;;;;;4.96;100.00;101870.84;5005626;28;20365;-75
2022/12/05 06:27:35;;;;;;;85.50;30.95;;;;;;;4.88;100.00;101864.06;5009749;28;20638;-75
2022/12/05 06:30:00;;;;;;;76.93;26.63;;;;;;;4.90;100.00;101872.91;5015232;28;20083;-75
2022/12/05 06:32:27;;;;;;;81.13;26.08;;;;;;;5.01;100.00;101877.06;5012200;28;20144;-76
2022/12/05 06:34:53;;;;;;;80.95;27.10;;;;;;;4.94;100.00;101879.47;5022496;28;20061;-75
2022/12/05 06:37:18;;;;;;;87.38;28.23;;;;;;;4.97;100.00;101878.81;5006827;28;20587;-76
2022/12/05 06:39:43;;;;;;;76.70;26.63;;;;;;;5.02;100.00;101864.84;5004146;28;20037;-75
2022/12/05 06:42:08;;;;;;;69.43;28.33;;;;;;;4.89;100.00;101872.09;5011744;28;20029;-77
2022/12/05 06:44:34;;;;;;;74.60;26.10;;;;;;;4.97;100.00;101872.47;5016491;28;20040;-74
2022/12/05 06:46:59;;;;;;;73.85;25.67;;;;;;;4.98;100.00;101869.38;5015654;28;20040;-75
2022/12/05 06:49:31;;;;;;;87.05;27.83;;;;;;;4.90;100.00;101859.03;5007733;28;20029;-74
2022/12/05 06:51:56;;;;;;;71.18;24.83;;;;;;;5.02;100.00;101867.63;4995752;28;20064;-76
2022/12/05 06:54:21;;;;;;;73.90;25.73;;;;;;;5.02;100.00;101867.63;4994533;28;20297;-76
2022/12/05 06:56:47;;;;;;;78.15;26.50;;;;;;;5.02;100.00;101866.81;5001360;28;20049;-75
2022/12/05 06:59:12;;;;;;;72.90;24.92;;;;;;;5.12;100.00;101868.47;5019776;28;20040;-75
2022/12/05 07:01:37;;;;;;;62.60;22.27;;;;;;;5.16;100.00;101880.59;4996964;28;20032;-76
2022/12/05 07:04:24;;;;;;;56.55;21.63;;;;;;;5.09;100.00;101869.94;4987689;28;20037;-75
2022/12/05 07:06:51;;;;;;;66.13;22.27;;;;;;;5.14;100.00;101880.09;4991336;28;20465;-75
2022/12/05 07:09:19;;;;;;;60.47;22.40;;;;;;;5.01;100.00;101871.50;4987373;28;20107;-76
2022/12/05 07:11:49;;;;;;;68.30;21.60;;;;;;;6.10;100.00;101882.19;4989538;28;20084;-75
2022/12/05 07:14:15;;;;;;;49.28;20.90;;;;;;;5.89;100.00;101883.91;5001714;28;20124;-75
2022/12/05 07:16:40;;;;;;;51.72;18.50;;;;;;;5.64;100.00;101897.34;5014198;28;20156;-75
2022/12/05 07:19:06;;;;;;;45.25;16.75;;;;;;;5.37;100.00;101898.34;4996203;28;20046;-77
2022/12/05 07:21:31;;;;;;;43.75;17.15;;;;;;;5.00;100.00;101889.31;4993421;28;20025;-75
2022/12/05 07:23:56;;;;;;;45.28;16.98;;;;;;;4.88;100.00;101897.38;4994181;28;20030;-75
2022/12/05 07:26:23;;;;;;;43.45;16.30;;;;;;;4.97;100.00;101891.88;4994557;28;20045;-75
2022/12/05 07:28:50;;;;;;;47.88;15.50;;;;;;;4.97;100.00;101897.44;4995041;28;20024;-76
2022/12/05 07:31:21;;;;;;;44.28;17.02;;;;;;;5.03;100.00;101904.50;4995891;28;20030;-75
2022/12/05 07:33:47;;;;;;;48.42;17.90;;;;;;;5.13;100.00;101897.88;4995959;28;20030;-75
2022/12/05 07:36:15;;;;;;;44.30;17.60;;;;;;;5.06;100.00;101890.00;4997606;28;20041;-75
2022/12/05 07:38:41;;;;;;;54.05;17.23;;;;;;;4.92;100.00;101895.59;4997787;28;20040;-75
2022/12/05 07:41:09;;;;;;;40.17;16.27;;;;;;;4.91;100.00;101901.47;5004839;28;20038;-76
2022/12/05 07:43:34;;;;;;;42.55;18.60;;;;;;;4.84;100.00;101897.16;5004951;28;20041;-75
2022/12/05 07:46:01;;;;;;;43.42;15.35;;;;;;;4.91;100.00;101891.19;5004589;28;20407;-75
2022/12/05 07:48:26;;;;;;;42.13;17.63;;;;;;;4.92;100.00;101887.28;5001266;28;20088;-76
2022/12/05 07:50:52;;;;;;;36.30;13.48;;;;;;;4.84;100.00;101888.03;5000611;28;20520;-75
2022/12/05 07:53:17;;;;;;;37.42;14.27;;;;;;;5.07;100.00;101888.84;5003000;28;20056;-76
2022/12/05 07:55:43;;;;;;;34.58;14.68;;;;;;;5.06;100.00;101895.56;5011880;28;20029;-76
2022/12/05 07:58:08;;;;;;;41.08;15.45;;;;;;;5.00;100.00;101900.41;5005760;28;20025;-76
2022/12/05 08:00:33;;;;;;;36.30;14.27;;;;;;;4.91;100.00;101901.47;5005005;28;20392;-76
2022/12/05 08:03:01;;;;;;;33.28;15.13;;;;;;;4.90;100.00;101900.66;4999243;28;20057;-75
2022/12/05 08:05:27;;;;;;;32.20;13.65;;;;;;;4.89;100.00;101896.22;5004099;28;20025;-74
2022/12/05 08:07:52;;;;;;;31.13;13.02;;;;;;;5.00;100.00;101903.19;5000550;28;20758;-76
2022/12/05 08:10:17;;;;;;;32.97;13.15;;;;;;;4.94;100.00;101911.94;5002066;28;20124;-75
2022/12/05 08:12:43;;;;;;;26.30;11.90;;;;;;;4.97;100.00;101919.63;5003162;28;20053;-76
2022/12/05 08:15:08;;;;;;;25.80;11.60;;;;;;;5.07;100.00;101911.06;5002657;28;20026;-76
2022/12/05 08:17:34;;;;;;;28.50;11.30;;;;;;;4.99;100.00;101915.41;5005643;28;20068;-76
2022/12/05 08:19:59;;;;;;;27.77;11.55;;;;;;;4.95;100.00;101914.38;4999024;28;20397;-76
2022/12/05 08:22:24;;;;;;;24.25;8.20;;;;;;;5.02;100.00;101913.97;5000055;28;20026;-76
2022/12/05 08:24:50;;;;;;;20.77;9.20;;;;;;;5.02;100.00;101914.78;4998841;28;20052;-76
2022/12/05 08:27:15;;;;;;;19.92;8.18;;;;;;;5.02;100.00;101920.34;5005271;28;20472;-79
2022/12/05 08:29:41;;;;;;;20.50;8.00;;;;;;;5.00;100.00;101928.16;5001113;28;20480;-75
2022/12/05 08:32:06;;;;;;;18.92;8.18;;;;;;;5.04;100.00;101929.16;5002483;28;20469;-75
2022/12/05 08:34:31;;;;;;;18.45;8.63;;;;;;;4.97;100.00;101928.75;5003808;28;20076;-75
2022/12/05 08:36:57;;;;;;;28.35;8.23;;;;;;;5.20;100.00;101924.03;5015966;28;20427;-75
2022/12/05 08:39:22;;;;;;;22.95;9.15;;;;;;;5.08;100.00;101935.72;5005144;28;20037;-75
2022/12/05 08:41:48;;;;;;;18.13;7.65;;;;;;;5.11;100.00;101939.00;5002905;28;20128;-75
2022/12/05 08:44:17;;;;;;;19.67;7.25;;;;;;;5.13;100.00;101933.97;5004842;28;20056;-76
2022/12/05 08:46:45;;;;;;;23.23;7.97;;;;;;;5.13;100.00;101940.34;5001868;28;20025;-75
2022/12/05 08:49:12;;;;;;;22.95;8.27;;;;;;;5.12;100.00;101941.44;5000325;28;20037;-76
2022/12/05 08:51:37;;;;;;;20.30;8.63;;;;;;;5.07;100.00;101947.13;5002440;28;20453;-76
2022/12/05 08:54:04;;;;;;;17.63;7.82;;;;;;;5.09;100.00;101948.47;4999862;28;20036;-75
2022/12/05 08:56:31;;;;;;;25.02;7.95;;;;;;;5.16;100.00;101934.13;5002543;28;20161;-75
2022/12/05 08:58:57;;;;;;;19.83;7.57;;;;;;;5.11;100.00;101939.81;4999109;28;20405;-75
2022/12/05 09:01:24;;;;;;;21.50;8.68;;;;;;;5.08;100.00;101944.06;5001799;28;20029;-76
2022/12/05 09:03:50;;;;;;;23.15;8.93;;;;;;;5.15;100.00;101938.06;5003304;28;20393;-73
2022/12/05 09:06:18;;;;;;;18.35;8.73;;;;;;;5.13;100.00;101943.09;5002623;28;20030;-75
2022/12/05 09:08:45;;;;;;;23.95;8.52;;;;;;;5.23;100.00;101942.03;5016593;28;20038;-75
2022/12/05 09:11:20;;;;;;;26.63;9.32;;;;;;;5.33;100.00;101941.75;5002570;28;20120;-74
2022/12/05 09:13:47;;;;;;;26.73;9.80;;;;;;;5.23;100.00;101947.59;5001885;28;20042;-75
2022/12/05 09:16:19;;;;;;;31.35;9.68;;;;;;;5.13;100.00;101948.66;5000800;28;21228;-75
2022/12/05 09:18:45;;;;;;;23.93;9.43;;;;;;;5.16;100.00;101953.56;4998484;28;20480;-75
2022/12/05 09:21:12;;;;;;;26.92;10.18;;;;;;;5.43;100.00;101960.94;4995716;28;21396;-76
2022/12/05 09:23:38;;;;;;;25.58;10.95;;;;;;;5.31;100.00;101949.59;5003705;28;20045;-76
2022/12/05 09:26:05;;;;;;;26.67;8.95;;;;;;;5.38;100.00;101952.75;5007274;28;20366;-76
2022/12/05 09:28:31;;;;;;;25.65;9.77;;;;;;;5.38;100.00;101963.06;5007018;28;20037;-76
2022/12/05 09:31:06;;;;;;;25.17;9.65;;;;;;;5.30;100.00;101956.28;5007921;28;20036;-76
2022/12/05 09:33:34;;;;;;;26.58;9.82;;;;;;;5.22;100.00;101962.59;5002290;28;20022;-76
2022/12/05 09:36:07;;;;;;;30.02;10.48;;;;;;;5.21;100.00;101959.00;5009350;28;20033;-76
2022/12/05 09:38:34;;;;;;;29.88;11.77;;;;;;;5.38;100.00;101961.09;4991976;28;20054;-76
2022/12/05 09:44:48;;;;;;;34.28;11.88;;;;;;;5.29;100.00;101963.81;5004806;28;20402;-76
2022/12/05 09:47:22;;;;;;;32.30;11.52;;;;;;;5.15;100.00;101965.00;4998165;28;20038;-76
2022/12/05 09:50:34;;;;;;;30.60;11.88;;;;;;;5.10;100.00;101960.38;5011808;28;20025;-76
2022/12/05 09:53:26;;;;;;;31.20;12.05;;;;;;;5.19;100.00;101971.56;5006534;28;20512;-76
2022/12/05 09:55:56;;;;;;;34.53;12.10;;;;;;;5.37;100.00;101969.72;5001692;28;20045;-76
2022/12/05 09:58:42;;;;;;;39.85;13.45;;;;;;;5.18;100.00;101965.16;5007088;28;20029;-75
2022/12/05 10:01:22;;;;;;;25.73;11.05;;;;;;;5.20;100.00;101965.69;5004469;28;20025;-76
2022/12/05 10:04:26;;;;;;;31.88;12.93;;;;;;;5.26;100.00;101969.16;5022558;28;20026;-76
2022/12/05 10:07:14;;;;;;;35.70;13.05;;;;;;;5.20;100.00;101968.44;5002680;28;20392;-76
2022/12/05 10:10:01;;;;;;;30.95;12.43;;;;;;;5.13;100.00;101964.50;5006449;28;20038;-76
2022/12/05 10:12:51;;;;;;;39.33;13.32;;;;;;;5.19;100.00;101971.56;5007658;28;20050;-76
2022/12/05 10:15:16;;;;;;;29.20;11.73;;;;;;;5.30;100.00;101970.19;5011590;28;20064;-76
2022/12/05 10:17:49;;;;;;;30.55;11.27;;;;;;;5.20;100.00;101970.41;5017595;28;20069;-76
2022/12/05 10:20:17;;;;;;;;;;;;;;;5.29;100.00;101968.53;5010180;28;20029;-76
2022/12/05 10:22:47;;;;;;;40.90;12.60;;;;;;;5.22;100.00;101954.28;5022191;28;19917;-77
2022/12/05 10:25:17;;;;;;;29.23;11.30;;;;;;;5.19;100.00;101954.91;5003870;28;20469;-76
2022/12/05 10:27:53;;;;;;;32.97;13.95;;;;;;;5.10;100.00;101957.59;5007321;28;20030;-76
2022/12/05 10:30:21;;;;;;;36.78;12.70;;;;;;;5.12;100.00;101954.50;5000172;28;20038;-76
2022/12/05 10:32:52;;;;;;;31.15;12.48;;;;;;;5.25;100.00;101950.88;5008058;28;20042;-76
2022/12/05 10:35:26;;;;;;;40.85;14.30;;;;;;;5.22;100.00;101952.31;5006610;28;20061;-76
2022/12/05 10:37:56;;;;;;;42.25;13.35;;;;;;;5.43;100.00;101957.34;5021508;28;20034;-76
2022/12/05 10:40:21;;;;;;;28.83;10.95;;;;;;;5.34;100.00;101951.75;5006814;28;20025;-75
2022/12/05 10:42:49;;;;;;;38.35;12.07;;;;;;;5.22;100.00;101954.28;5002823;28;20042;-76
2022/12/05 10:45:21;;;;;;;37.38;12.63;;;;;;;5.28;100.00;101958.56;5008079;28;20026;-76
2022/12/05 10:47:47;;;;;;;35.08;13.02;;;;;;;5.47;100.00;101956.41;5020472;28;20388;-75
2022/12/05 10:50:21;;;;;;;33.42;11.63;;;;;;;5.26;100.00;101952.50;5000857;28;20530;-73
2022/12/05 10:52:47;;;;;;;30.20;12.73;;;;;;;5.32;100.00;101955.97;4996594;28;20197;-74
2022/12/05 10:55:16;;;;;;;35.40;12.18;;;;;;;5.07;100.00;101956.28;5002848;28;20539;-75
2022/12/05 10:57:41;;;;;;;43.40;14.10;;;;;;;5.14;100.00;101955.03;5000369;28;20037;-75
2022/12/05 11:00:12;;;;;;;34.72;11.70;;;;;;;5.32;100.00;101942.91;5004207;28;20362;-74
2022/12/05 11:02:39;;;;;;;40.33;14.23;;;;;;;5.35;100.00;101945.03;4994102;28;20496;-75
2022/12/05 11:05:05;;;;;;;39.92;12.82;;;;;;;5.29;100.00;101943.53;4998741;28;20113;-74
2022/12/05 11:07:42;;;;;;;36.80;10.98;;;;;;;5.08;100.00;101943.22;4997518;28;20136;-74
2022/12/05 11:10:24;;;;;;;37.83;12.82;;;;;;;5.19;100.00;101946.59;4994426;28;20440;-73
2022/12/05 11:12:50;;;;;;;32.43;12.00;;;;;;;5.10;100.00;101952.03;5004814;28;20077;-75
2022/12/05 11:15:20;;;;;;;32.05;13.10;;;;;;;5.19;100.00;101943.81;4996936;28;20141;-74
2022/12/05 11:17:46;;;;;;;35.70;12.93;;;;;;;5.08;100.00;101944.06;4994159;28;20022;-75
2022/12/05 11:20:14;;;;;;;33.47;13.32;;;;;;;5.07;100.00;101941.59;4997243;28;20050;-75
2022/12/05 11:22:40;;;;;;;33.33;11.80;;;;;;;5.13;100.00;101937.56;4998912;28;20121;-75
2022/12/05 11:25:33;;;;;;;29.05;11.20;;;;;;;5.14;100.00;101943.91;4995253;28;20052;-76
2022/12/05 11:28:19;;;;;;;30.10;12.38;;;;;;;5.27;100.00;101954.13;4995132;28;20517;-76
2022/12/05 11:30:57;;;;;;;31.40;11.95;;;;;;;5.12;100.00;101948.97;4996061;28;20480;-76
2022/12/05 11:33:26;;;;;;;30.73;11.38;;;;;;;5.11;100.00;101944.56;4999774;28;20545;-76
2022/12/05 11:35:54;;;;;;;28.55;11.10;;;;;;;5.13;100.00;101947.84;4998361;28;20036;-75
2022/12/05 11:38:23;;;;;;;25.70;10.57;;;;;;;5.06;100.00;101949.09;4993492;28;20022;-75
2022/12/05 11:40:59;;;;;;;29.25;12.80;;;;;;;5.25;100.00;101950.88;4993837;28;20080;-77
2022/12/05 11:43:43;;;;;;;30.20;11.60;;;;;;;5.25;100.00;101948.09;4992924;28;20437;-75
2022/12/05 11:46:18;;;;;;;36.10;11.55;;;;;;;5.32;100.00;101942.91;4999234;28;20593;-75
2022/12/05 11:49:16;;;;;;;29.58;12.30;;;;;;;5.20;100.00;101943.47;4996322;28;20516;-75
2022/12/05 11:51:50;;;;;;;34.03;12.52;;;;;;;5.24;100.00;101946.44;4996748;28;20030;-75
2022/12/05 11:54:41;;;;;;;27.75;11.02;;;;;;;5.31;100.00;101949.59;4994921;28;20040;-75
2022/12/05 11:57:15;;;;;;;30.25;11.18;;;;;;;5.10;100.00;101935.38;5008067;28;20488;-74
2022/12/05 12:00:02;;;;;;;28.13;10.55;;;;;;;5.01;100.00;101938.09;4995567;28;20034;-75
2022/12/05 12:02:36;;;;;;;30.85;10.95;;;;;;;5.13;100.00;101931.19;4995336;28;20484;-76
2022/12/05 12:05:16;;;;;;;31.38;12.15;;;;;;;5.19;100.00;101932.72;4993603;28;20206;-75
2022/12/05 12:08:00;;;;;;;36.55;12.02;;;;;;;5.18;100.00;101933.81;4991550;28;20038;-77
2022/12/05 12:10:44;;;;;;;25.92;10.20;;;;;;;5.23;100.00;101928.97;4997428;28;20567;-75
2022/12/05 12:13:19;;;;;;;42.70;11.45;;;;;;;5.31;100.00;101932.94;4998086;28;20046;-74
2022/12/05 12:16:05;;;;;;;37.20;11.80;;;;;;;5.42;100.00;101928.78;4996279;28;20046;-75
2022/12/05 12:18:43;;;;;;;27.38;11.35;;;;;;;5.30;100.00;101934.09;4992743;28;20493;-74
2022/12/05 12:21:28;;;;;;;28.10;10.68;;;;;;;5.14;100.00;101938.38;5000405;28;20037;-74
2022/12/05 12:24:21;;;;;;;27.70;12.13;;;;;;;5.29;100.00;101929.66;4997937;28;20350;-74
2022/12/05 12:27:15;;;;;;;32.53;10.65;;;;;;;5.17;100.00;101937.75;5001337;28;20394;-74
2022/12/05 12:29:49;;;;;;;26.02;10.23;;;;;;;5.13;100.00;101936.75;5001670;28;20122;-75
2022/12/05 12:32:44;;;;;;;25.58;9.60;;;;;;;5.33;100.00;101935.41;4997856;28;20030;-75
2022/12/05 12:35:25;;;;;;;29.55;10.82;;;;;;;5.31;100.00;101941.25;4999562;28;20050;-74
2022/12/05 12:37:57;;;;;;;19.95;9.38;;;;;;;5.59;100.00;101933.63;4999777;28;20496;-74
2022/12/05 12:40:46;;;;;;;24.25;9.68;;;;;;;5.50;100.00;101928.00;5003648;28;20029;-75
2022/12/05 12:43:35;;;;;;;22.30;10.02;;;;;;;5.44;100.00;101923.72;4999281;28;20072;-75
2022/12/05 12:46:27;;;;;;;24.88;10.23;;;;;;;5.27;100.00;101923.59;5004537;28;20430;-75
2022/12/05 12:49:21;;;;;;;36.65;11.23;;;;;;;5.29;100.00;101921.31;5001227;28;20033;-75
2022/12/05 12:51:57;;;;;;;24.27;11.23;;;;;;;5.21;100.00;101916.56;5001425;28;20033;-74
2022/12/05 12:55:06;;;;;;;23.10;10.90;;;;;;;5.56;100.00;101919.53;5001603;28;20172;-74
2022/12/05 12:57:59;;;;;;;22.95;10.38;;;;;;;5.30;100.00;101921.00;5006074;28;20091;-76
2022/12/05 13:00:36;;;;;;;23.77;10.82;;;;;;;5.24;100.00;101910.38;4996513;28;20026;-75
2022/12/05 13:03:12;;;;;;;25.02;9.50;;;;;;;5.14;100.00;101916.97;5004228;28;20469;-75
2022/12/05 13:05:46;;;;;;;26.48;10.65;;;;;;;5.42;100.00;101917.66;5005515;28;20025;-75
2022/12/05 13:08:34;;;;;;;25.02;10.85;;;;;;;5.40;100.00;101908.84;5010045;28;20033;-75
2022/12/05 13:11:05;;;;;;;20.25;9.75;;;;;;;5.22;100.00;101901.53;5005330;28;20556;-74
2022/12/05 13:13:48;;;;;;;30.20;10.45;;;;;;;5.36;100.00;101909.78;5018662;28;20034;-74
2022/12/05 13:16:24;;;;;;;24.48;11.18;;;;;;;5.80;100.00;101906.09;4998122;28;20026;-75
2022/12/05 13:18:49;;;;;;;29.50;11.45;;;;;;;5.36;100.00;101896.72;4997140;28;20072;-74
2022/12/05 13:21:15;;;;;;;24.50;10.55;;;;;;;5.37;100.00;101908.66;4995036;28;20034;-74
2022/12/05 13:23:54;;;;;;;24.42;10.45;;;;;;;5.57;100.00;101907.31;4997168;28;20045;-75
2022/12/05 13:26:22;;;;;;;22.20;9.70;;;;;;;5.63;100.00;101911.56;4997228;28;20029;-74
2022/12/05 13:28:57;;;;;;;21.38;10.52;;;;;;;5.40;100.00;101908.84;4999794;28;20516;-74
2022/12/05 13:31:42;;;;;;;25.08;8.90;;;;;;;5.44;100.00;101918.19;5011241;28;20436;-77
2022/12/05 13:34:27;;;;;;;16.80;8.98;;;;;;;5.24;100.00;101911.19;5016297;28;20500;-77
2022/12/05 13:42:30;;;;;;;25.73;10.18;;;;;;;5.26;100.00;101911.69;5000112;28;20538;-74
2022/12/05 13:45:04;;;;;;;24.27;10.05;;;;;;;5.19;100.00;101913.28;4999807;28;20440;-76
2022/12/05 13:47:32;;;;;;;18.33;10.05;;;;;;;5.28;100.00;101906.63;4999588;28;20026;-76
2022/12/05 13:50:06;;;;;;;23.88;10.13;;;;;;;5.52;100.00;101908.22;5008634;28;20049;-76
2022/12/05 13:52:42;;;;;;;19.85;9.65;;;;;;;5.64;100.00;101910.44;4991465;28;20560;-75
2022/12/05 13:55:30;;;;;;;22.20;9.20;;;;;;;5.51;100.00;101909.38;4990006;28;20091;-75
2022/12/05 13:58:00;;;;;;;18.95;9.75;;;;;;;5.42;100.00;101906.56;4997184;28;20033;-75
2022/12/05 14:00:31;;;;;;;16.20;7.40;;;;;;;5.14;100.00;101905.06;4996513;28;20025;-76
2022/12/05 14:03:03;;;;;;;20.48;8.82;;;;;;;5.27;100.00;101915.25;4993367;28;20065;-76
2022/12/05 14:05:43;;;;;;;20.27;8.18;;;;;;;5.38;100.00;101919.44;5001150;28;20041;-76
2022/12/05 14:08:34;;;;;;;18.52;9.30;;;;;;;6.83;100.00;101915.03;5000188;28;20030;-78
2022/12/05 14:11:04;;;;;;;19.38;8.05;;;;;;;5.95;100.00;101917.97;4996989;28;20048;-78
2022/12/05 14:13:31;;;;;;;18.98;8.10;;;;;;;5.48;100.00;101924.75;5004223;28;20081;-78
2022/12/05 14:16:24;;;;;;;16.45;6.93;;;;;;;5.59;100.00;101913.38;4998257;28;20033;-78
2022/12/05 14:19:11;;;;;;;17.48;7.65;;;;;;;5.37;100.00;101920.56;4997613;28;20433;-79
2022/12/05 14:22:25;;;;;;;18.95;7.60;;;;;;;5.46;100.00;101918.69;4998282;28;20658;-77
2022/12/05 14:25:09;;;;;;;17.17;7.35;;;;;;;5.47;100.00;101920.31;4997353;28;20099;-76
2022/12/05 14:27:53;;;;;;;15.45;7.25;;;;;;;5.38;100.00;101922.22;4995507;28;20144;-77
2022/12/05 14:30:30;;;;;;;16.17;6.72;;;;;;;5.32;100.00;101919.91;4998529;28;20107;-77
2022/12/05 14:33:00;;;;;;;13.85;5.93;;;;;;;5.43;100.00;101916.53;4999953;28;20040;-78
2022/12/05 14:35:38;;;;;;;14.60;6.63;;;;;;;5.62;100.00;101918.25;5017043;28;20057;-78
2022/12/05 14:38:05;;;;;;;19.13;6.65;;;;;;;5.56;100.00;101911.22;5001274;28;20061;-77
2022/12/05 14:40:36;;;;;;;12.20;5.70;;;;;;;5.35;100.00;101914.50;5022938;28;20544;-76
2022/12/05 14:43:16;;;;;;;18.38;6.20;;;;;;;5.41;100.00;101913.25;5005304;28;20032;-77
2022/12/05 14:45:56;;;;;;;12.82;5.38;;;;;;;5.25;100.00;101906.47;5003564;28;20040;-77
2022/12/05 14:48:28;;;;;;;12.98;6.28;;;;;;;5.71;100.00;101908.00;4994234;28;20096;-78
2022/12/05 14:50:55;;;;;;;12.38;5.50;;;;;;;5.60;100.00;101912.22;4997023;28;20505;-77
2022/12/05 14:53:24;;;;;;;12.10;6.35;;;;;;;5.37;100.00;101905.88;4992613;28;20026;-77
2022/12/05 14:55:55;;;;;;;12.27;5.75;;;;;;;5.33;100.00;101913.19;4993457;28;20075;-76
2022/12/05 14:58:56;;;;;;;12.70;5.80;;;;;;;5.13;100.00;101914.53;4996351;28;20472;-75
2022/12/05 15:01:27;;;;;;;13.43;6.88;;;;;;;5.25;100.00;101915.59;4988365;28;20460;-77
2022/12/05 15:04:07;;;;;;;20.10;8.07;;;;;;;5.39;100.00;101918.28;4988752;28;20021;-76
2022/12/05 15:06:41;;;;;;;16.23;6.60;;;;;;;5.47;100.00;101928.63;4994435;28;20029;-76
2022/12/05 15:09:14;;;;;;;11.73;5.45;;;;;;;5.52;100.00;101921.31;5013125;28;21422;-76
2022/12/05 15:11:39;;;;;;;14.65;6.63;;;;;;;5.59;100.00;101919.72;4991019;28;20423;-76
2022/12/05 15:14:17;;;;;;;10.35;6.03;;;;;;;5.51;100.00;101926.06;4995316;28;20435;-76
2022/12/05 15:16:44;;;;;;;15.07;6.72;;;;;;;5.67;100.00;101927.28;4985366;28;20036;-76
2022/12/05 15:19:22;;;;;;;23.20;10.23;;;;;;;5.55;100.00;101938.16;4984348;28;20408;-77
2022/12/05 15:21:55;;;;;;;13.55;7.00;;;;;;;5.39;100.00;101940.50;4984753;28;20491;-77
2022/12/05 15:24:21;;;;;;;13.50;8.23;;;;;;;5.54;100.00;101927.38;4982073;28;20030;-76
2022/12/05 15:26:51;;;;;;;14.20;5.95;;;;;;;5.30;100.00;101932.13;4992443;28;20022;-76
2022/12/05 15:29:19;;;;;;;12.23;5.93;;;;;;;5.38;100.00;101933.31;4993200;28;20033;-76
2022/12/05 15:31:50;;;;;;;15.65;7.57;;;;;;;5.47;100.00;101936.97;4988276;28;20034;-75
2022/12/05 15:34:30;;;;;;;12.13;5.72;;;;;;;5.35;100.00;101936.72;4986063;28;20052;-75
2022/12/05 15:37:03;;;;;;;12.00;6.65;;;;;;;5.36;100.00;101935.59;4994042;28;20034;-75
2022/12/05 15:39:47;;;;;;;15.40;6.60;;;;;;;5.47;100.00;101936.97;4995110;28;20041;-75
2022/12/05 15:42:14;;;;;;;11.27;6.57;;;;;;;5.43;100.00;101947.06;5014492;28;20038;-75
2022/12/05 15:44:40;;;;;;;11.52;6.10;;;;;;;5.35;100.00;101939.50;4995428;28;20112;-76
2022/12/05 15:47:19;;;;;;;12.27;6.18;;;;;;;5.37;100.00;101940.00;4993334;28;20025;-76
2022/12/05 15:49:45;;;;;;;11.40;6.70;;;;;;;5.40;100.00;101942.16;4992732;28;20085;-76
2022/12/05 15:52:50;;;;;;;14.70;5.95;;;;;;;5.53;100.00;101945.19;4993171;28;20034;-77
2022/12/05 15:55:54;;;;;;;9.15;5.10;;;;;;;5.63;100.00;101945.72;4996791;28;20081;-76
2022/12/05 15:58:30;;;;;;;9.00;4.63;;;;;;;5.50;100.00;101935.50;4992825;28;20509;-77
2022/12/05 16:01:18;;;;;;;15.75;5.57;;;;;;;5.58;100.00;101948.63;4998336;28;20163;-77
2022/12/05 16:03:50;;;;;;;13.38;5.60;;;;;;;5.54;100.00;101950.41;4998949;28;20057;-76
2022/12/05 16:06:31;;;;;;;12.57;5.87;;;;;;;5.68;100.00;101947.56;5004310;28;20033;-77
2022/12/05 16:08:59;;;;;;;10.65;5.78;;;;;;;5.53;100.00;101951.56;4999937;28;20043;-75
2022/12/05 16:11:25;;;;;;;11.13;7.05;;;;;;;5.52;100.00;101949.06;4995004;28;20038;-76
2022/12/05 16:13:55;;;;;;;16.58;8.07;;;;;;;5.43;100.00;101952.63;4995353;28;20046;-75
2022/12/05 16:16:31;;;;;;;9.77;5.68;;;;;;;5.47;100.00;101948.06;4995246;28;20732;-75
2022/12/05 16:19:14;;;;;;;11.48;6.22;;;;;;;5.60;100.00;101953.88;4999545;28;20025;-76
2022/12/05 16:22:12;;;;;;;12.80;6.72;;;;;;;5.49;100.00;101954.13;5000006;28;20385;-76
2022/12/05 16:24:53;;;;;;;12.38;6.80;;;;;;;5.55;100.00;101954.03;5002491;28;20037;-75
2022/12/05 16:27:24;;;;;;;13.45;7.93;;;;;;;5.48;100.00;101946.09;5002465;28;20515;-76
2022/12/05 16:30:11;;;;;;;15.55;7.72;;;;;;;5.40;100.00;101953.25;5000861;28;20034;-76
2022/12/05 16:32:39;;;;;;;10.82;5.85;;;;;;;5.28;100.00;101953.00;5015949;28;20026;-76
2022/12/05 16:35:28;;;;;;;7.68;5.28;;;;;;;5.42;100.00;101951.00;5003304;28;20108;-76
2022/12/05 16:38:16;;;;;;;19.02;7.95;;;;;;;5.47;100.00;101953.63;5001153;28;20065;-76
2022/12/05 16:40:47;;;;;;;15.20;7.53;;;;;;;5.24;100.00;101958.38;5005692;28;20029;-76
2022/12/05 16:43:31;;;;;;;12.25;6.38;;;;;;;5.41;100.00;101959.63;5018162;28;20030;-78
2022/12/05 16:46:12;;;;;;;11.65;7.72;;;;;;;5.39;100.00;101954.38;5000717;28;20037;-76
2022/12/05 16:48:39;;;;;;;18.35;7.97;;;;;;;5.39;100.00;101959.13;4996496;28;20117;-76
2022/12/05 16:51:11;;;;;;;12.25;6.95;;;;;;;5.23;100.00;101953.97;5019955;28;20045;-78
2022/12/05 16:53:38;;;;;;;18.38;8.18;;;;;;;5.14;100.00;101960.56;5000360;28;20041;-75
2022/12/05 16:56:05;;;;;;;16.73;7.80;;;;;;;5.31;100.00;101960.69;5004509;28;20452;-76
2022/12/05 16:58:33;;;;;;;15.57;8.00;;;;;;;5.42;100.00;101955.72;4993921;28;20478;-75
2022/12/05 17:01:04;;;;;;;14.80;8.32;;;;;;;5.57;100.00;101963.66;5004392;28;20038;-76
2022/12/05 17:03:30;;;;;;;16.33;9.85;;;;;;;5.30;100.00;101961.84;5015744;28;20465;-75
2022/12/05 17:05:56;;;;;;;16.02;8.23;;;;;;;5.39;100.00;101964.69;5002012;28;20037;-75
2022/12/05 17:08:23;;;;;;;14.10;8.15;;;;;;;5.38;100.00;101966.66;4999286;28;20029;-76
2022/12/05 17:10:49;;;;;;;14.15;8.32;;;;;;;5.33;100.00;101961.19;5015916;28;20512;-76
2022/12/05 17:13:15;;;;;;;13.93;7.70;;;;;;;5.36;100.00;101966.13;4993827;28;20037;-76
2022/12/05 17:15:41;;;;;;;16.15;7.95;;;;;;;5.43;100.00;101969.28;4998034;28;20223;-76
2022/12/05 17:18:12;;;;;;;13.23;6.85;;;;;;;5.42;100.00;101970.44;4987686;28;20524;-76
2022/12/05 17:20:40;;;;;;;24.98;11.15;;;;;;;5.37;100.00;101973.31;4993508;28;20109;-76
2022/12/05 17:23:05;;;;;;;18.55;9.88;;;;;;;5.47;100.00;101970.28;4991092;28;20480;-76
2022/12/05 17:25:35;;;;;;;23.70;8.98;;;;;;;5.51;100.00;101976.03;4994571;28;20022;-76
2022/12/05 17:28:00;;;;;;;15.63;8.00;;;;;;;5.42;100.00;101972.41;4998214;28;20476;-76
2022/12/05 17:30:26;;;;;;;15.93;8.02;;;;;;;5.32;100.00;101967.91;4995737;28;20033;-78
2022/12/05 17:32:51;;;;;;;52.70;20.52;;;;;;;5.88;100.00;101969.25;4994628;28;20029;-75
2022/12/05 17:35:18;;;;;;;21.73;10.13;;;;;;;5.90;100.00;101966.97;4997757;28;20021;-76
2022/12/05 17:37:44;;;;;;;22.33;11.80;;;;;;;5.79;100.00;101970.31;4991827;28;20034;-75
2022/12/05 17:40:10;;;;;;;14.00;7.95;;;;;;;5.74;100.00;101968.50;5011063;28;20470;-76
2022/12/05 17:42:36;;;;;;;17.13;9.30;;;;;;;5.69;100.00;101977.78;4995918;28;20104;-78
2022/12/05 17:45:01;;;;;;;14.90;8.75;;;;;;;5.63;100.00;101967.09;5002119;28;20030;-76
2022/12/05 17:47:27;;;;;;;16.30;9.35;;;;;;;5.74;100.00;101974.06;4989478;28;20489;-75
2022/12/05 17:49:52;;;;;;;13.77;8.60;;;;;;;5.80;100.00;101983.09;4991953;28;20036;-76
2022/12/05 17:52:17;;;;;;;22.05;10.02;;;;;;;6.36;100.00;101984.31;5008796;28;20030;-76
2022/12/05 17:54:43;;;;;;;16.65;10.40;;;;;;;6.08;100.00;101980.97;4995931;28;20618;-77